Time;durP1;ratioP1;P1;durP2;ratioP2;P2;SDS_P1;SDS_P2;PMS_P1;PMS_P2;Temp;Humidity;BMP_temperature;BMP_pressure;BME280_temperature;BME280_humidity;BME280_pressure;Samples;Min_cycle;Max_cycle;Signal;HPM_P1;HPM_P2
2021/06/30 00:01:58;;;;;;;15.07;11.57;;;;;;;18.97;100.00;99816.72;5007660;28;20339;-77
2021/06/30 00:04:25;;;;;;;13.20;11.67;;;;;;;19.01;100.00;99820.81;5025071;28;20235;-76
2021/06/30 00:06:52;;;;;;;13.27;11.87;;;;;;;19.01;100.00;99825.25;5023125;28;20211;-78
2021/06/30 00:09:20;;;;;;;13.37;11.97;;;;;;;19.00;100.00;99821.78;5029637;28;20208;-77
2021/06/30 00:11:46;;;;;;;13.70;11.97;;;;;;;18.98;100.00;99828.97;5025330;28;20231;-77
2021/06/30 00:14:14;;;;;;;14.43;12.80;;;;;;;18.99;100.00;99828.00;5022626;28;20567;-76
2021/06/30 00:16:43;;;;;;;14.07;12.57;;;;;;;18.96;100.00;99822.97;5027482;28;20727;-78
2021/06/30 00:19:11;;;;;;;13.50;12.20;;;;;;;18.96;100.00;99820.34;4998616;28;20208;-76
2021/06/30 00:21:38;;;;;;;13.87;12.23;;;;;;;18.95;100.00;99823.91;5018800;28;20310;-77
2021/06/30 00:24:06;;;;;;;13.97;12.40;;;;;;;18.95;100.00;99816.00;5024588;28;20682;-75
2021/06/30 00:26:33;;;;;;;14.23;12.73;;;;;;;18.96;100.00;99807.13;5026200;28;20295;-76
2021/06/30 00:28:59;;;;;;;13.57;12.17;;;;;;;18.96;100.00;99806.25;5023073;28;20235;-77
2021/06/30 00:31:26;;;;;;;14.33;12.80;;;;;;;18.98;100.00;99801.69;5025755;28;20227;-77
2021/06/30 00:33:54;;;;;;;15.37;12.73;;;;;;;18.97;100.00;99800.88;5021933;28;20210;-77
2021/06/30 00:36:20;;;;;;;14.10;12.70;;;;;;;18.98;100.00;99799.94;5006746;28;20601;-77
2021/06/30 00:38:46;;;;;;;13.60;12.20;;;;;;;19.01;100.00;99804.97;5019284;28;20210;-77
2021/06/30 00:41:13;;;;;;;15.00;11.90;;;;;;;18.99;100.00;99798.13;5022624;28;20243;-77
2021/06/30 00:43:39;;;;;;;21.07;13.00;;;;;;;18.99;100.00;99800.75;5020231;28;20204;-76
2021/06/30 00:46:05;;;;;;;13.63;12.23;;;;;;;19.00;100.00;99794.53;5022893;28;20330;-77
2021/06/30 00:48:32;;;;;;;16.27;13.33;;;;;;;18.99;100.00;99790.19;5026818;28;20200;-77
2021/06/30 00:51:00;;;;;;;13.80;12.30;;;;;;;18.99;100.00;99779.63;5023774;28;20216;-77
2021/06/30 00:53:26;;;;;;;16.40;13.27;;;;;;;18.97;100.00;99777.09;5030647;28;20209;-77
2021/06/30 00:55:53;;;;;;;14.03;12.53;;;;;;;18.98;100.00;99784.06;5007273;28;20204;-76
2021/06/30 00:58:19;;;;;;;14.57;13.00;;;;;;;18.98;100.00;99781.44;5025828;28;20237;-77
2021/06/30 01:00:48;;;;;;;14.60;13.10;;;;;;;19.01;100.00;99793.56;5019296;28;20561;-77
2021/06/30 01:03:15;;;;;;;17.20;13.53;;;;;;;19.02;100.00;99800.53;5017316;28;20202;-77
2021/06/30 01:05:41;;;;;;;14.67;13.13;;;;;;;19.03;100.00;99804.84;5016307;28;20310;-77
2021/06/30 01:08:09;;;;;;;14.97;13.27;;;;;;;19.04;100.00;99801.25;5019922;28;20208;-77
2021/06/30 01:10:36;;;;;;;14.60;13.13;;;;;;;19.05;100.00;99814.34;5025626;28;20204;-77
2021/06/30 01:13:05;;;;;;;14.80;13.27;;;;;;;19.07;100.00;99833.56;5019419;28;20220;-77
2021/06/30 01:15:31;;;;;;;15.00;13.40;;;;;;;19.09;100.00;99841.38;5023903;28;20253;-77
2021/06/30 01:17:57;;;;;;;16.10;13.80;;;;;;;19.09;100.00;99842.22;5018566;28;20204;-77
2021/06/30 01:20:24;;;;;;;16.83;14.07;;;;;;;19.08;100.00;99834.41;5026008;28;20204;-77
2021/06/30 01:23:05;;;;;;;16.30;13.97;;;;;;;19.02;100.00;99830.44;5021453;28;20226;-77
2021/06/30 01:25:31;;;;;;;17.03;14.47;;;;;;;18.97;100.00;99827.28;5022403;28;20255;-77
2021/06/30 01:27:58;;;;;;;15.30;13.80;;;;;;;18.95;100.00;99823.91;5028709;28;20762;-77
2021/06/30 01:30:25;;;;;;;17.77;14.33;;;;;;;18.94;100.00;99826.66;5020947;28;20204;-77
2021/06/30 01:32:51;;;;;;;18.07;15.03;;;;;;;18.89;100.00;99834.91;5022655;28;20742;-77
2021/06/30 01:35:22;;;;;;;15.03;13.47;;;;;;;18.85;100.00;99826.38;5021398;28;20286;-76
2021/06/30 01:37:49;;;;;;;16.00;13.67;;;;;;;18.83;100.00;99825.66;5023032;28;20207;-77
2021/06/30 01:40:18;;;;;;;17.40;14.40;;;;;;;18.81;100.00;99824.91;5022809;28;20228;-77
2021/06/30 01:42:45;;;;;;;18.87;13.80;;;;;;;18.81;100.00;99816.97;5025856;28;20231;-75
2021/06/30 01:45:13;;;;;;;17.33;14.17;;;;;;;18.78;100.00;99816.34;5024713;28;20342;-75
2021/06/30 01:47:39;;;;;;;17.43;15.20;;;;;;;18.76;100.00;99813.00;5025425;28;20211;-77
2021/06/30 01:50:07;;;;;;;16.37;14.53;;;;;;;18.72;100.00;99797.38;5018897;28;20207;-77
2021/06/30 01:52:34;;;;;;;17.07;15.27;;;;;;;18.72;100.00;99789.44;5026579;28;20291;-77
2021/06/30 01:55:01;;;;;;;18.53;15.37;;;;;;;18.69;100.00;99788.81;5025403;28;20214;-75
2021/06/30 01:57:29;;;;;;;17.07;15.27;;;;;;;18.68;100.00;99782.72;5020795;28;20205;-77
2021/06/30 01:59:55;;;;;;;16.83;14.73;;;;;;;18.68;100.00;99785.34;5028491;28;20228;-77
2021/06/30 02:02:25;;;;;;;18.50;14.87;;;;;;;18.68;100.00;99792.41;5007828;28;20251;-76
2021/06/30 02:04:59;;;;;;;16.13;14.43;;;;;;;18.70;100.00;99798.44;5008073;28;20658;-78
2021/06/30 02:07:25;;;;;;;18.97;15.10;;;;;;;18.73;100.00;99808.75;5023654;28;20204;-78
2021/06/30 02:09:52;;;;;;;21.63;16.10;;;;;;;18.78;100.00;99819.00;5026078;28;20215;-77
2021/06/30 02:12:18;;;;;;;19.73;16.13;;;;;;;18.76;100.00;99816.47;5024043;28;20276;-76
2021/06/30 02:14:46;;;;;;;18.60;15.03;;;;;;;18.73;100.00;99821.97;5020963;28;20266;-77
2021/06/30 02:17:12;;;;;;;20.87;15.00;;;;;;;18.71;100.00;99813.31;5026286;28;20212;-77
2021/06/30 02:19:38;;;;;;;22.67;16.40;;;;;;;18.69;100.00;99807.31;5022563;28;20981;-75
2021/06/30 02:22:05;;;;;;;20.40;16.10;;;;;;;18.65;100.00;99805.84;5019608;28;20234;-77
2021/06/30 02:24:31;;;;;;;17.83;15.93;;;;;;;18.62;100.00;99811.34;5021315;28;20203;-77
2021/06/30 02:26:58;;;;;;;18.73;16.13;;;;;;;18.63;100.00;99813.06;5023497;28;20966;-77
2021/06/30 02:29:24;;;;;;;18.20;14.90;;;;;;;18.62;100.00;99816.63;5020315;28;20200;-77
2021/06/30 02:31:52;;;;;;;16.73;14.90;;;;;;;18.63;100.00;99828.88;5024621;28;20346;-76
2021/06/30 02:34:18;;;;;;;19.30;15.17;;;;;;;18.62;100.00;99822.75;5024376;28;20749;-78
2021/06/30 02:36:44;;;;;;;15.93;14.23;;;;;;;18.63;100.00;99831.53;5021089;28;20271;-78
2021/06/30 02:39:11;;;;;;;19.30;14.67;;;;;;;18.62;100.00;99838.59;5022938;28;20200;-76
2021/06/30 02:41:37;;;;;;;17.30;13.63;;;;;;;18.58;100.00;99841.56;5024031;28;20816;-76
2021/06/30 02:44:04;;;;;;;15.03;13.23;;;;;;;18.53;100.00;99837.44;5026123;28;20202;-76
2021/06/30 02:46:31;;;;;;;15.50;12.70;;;;;;;18.48;100.00;99836.94;5001721;28;20338;-77
2021/06/30 02:48:58;;;;;;;14.00;12.50;;;;;;;18.47;100.00;99834.44;5021095;28;20217;-76
2021/06/30 02:51:25;;;;;;;14.73;12.00;;;;;;;18.46;100.00;99832.72;5019481;28;20325;-77
2021/06/30 02:53:51;;;;;;;13.23;11.53;;;;;;;18.44;100.00;99835.47;5033651;28;20203;-77
2021/06/30 02:56:21;;;;;;;13.50;11.47;;;;;;;18.41;100.00;99834.84;5018663;28;20752;-77
2021/06/30 02:58:47;;;;;;;11.70;9.47;;;;;;;18.36;100.00;99840.44;5023487;28;20261;-76
2021/06/30 03:01:13;;;;;;;8.20;7.20;;;;;;;18.34;100.00;99840.56;5022671;28;20230;-77
2021/06/30 03:03:40;;;;;;;8.73;7.60;;;;;;;18.32;100.00;99852.19;5023935;28;20788;-77
2021/06/30 03:06:08;;;;;;;10.90;7.37;;;;;;;18.29;100.00;99861.16;5030460;28;20441;-76
2021/06/30 03:08:34;;;;;;;9.90;7.90;;;;;;;18.32;100.00;99878.56;5021626;28;20216;-77
2021/06/30 03:11:00;;;;;;;7.67;6.93;;;;;;;18.31;100.00;99877.72;5026314;28;20227;-77
2021/06/30 03:13:27;;;;;;;8.93;6.80;;;;;;;18.32;100.00;99870.66;5023745;28;20204;-76
2021/06/30 03:15:53;;;;;;;9.23;7.13;;;;;;;18.31;100.00;99858.41;5027020;28;20206;-76
2021/06/30 03:18:20;;;;;;;8.77;7.07;;;;;;;18.26;100.00;99842.91;5027840;28;20205;-75
2021/06/30 03:20:46;;;;;;;7.60;6.33;;;;;;;18.21;100.00;99841.56;5025834;28;20200;-76
2021/06/30 03:23:14;;;;;;;9.27;6.30;;;;;;;18.19;100.00;99836.38;5009991;28;20204;-76
2021/06/30 03:25:41;;;;;;;8.47;6.00;;;;;;;18.14;100.00;99844.59;5027843;28;20251;-76
2021/06/30 03:28:07;;;;;;;7.60;6.10;;;;;;;18.12;100.00;99858.88;5034132;28;20200;-77
2021/06/30 03:30:34;;;;;;;6.50;5.80;;;;;;;18.12;100.00;99858.88;5027136;28;20338;-76
2021/06/30 03:33:01;;;;;;;6.50;5.37;;;;;;;18.08;100.00;99860.88;5028551;28;20679;-76
2021/06/30 03:35:28;;;;;;;8.67;5.57;;;;;;;18.07;100.00;99851.25;5023232;28;20200;-76
2021/06/30 03:37:55;;;;;;;6.10;4.83;;;;;;;18.05;100.00;99857.63;5015574;28;20305;-75
2021/06/30 03:40:23;;;;;;;4.73;4.13;;;;;;;18.00;100.00;99857.09;5026532;28;20227;-77
2021/06/30 03:42:49;;;;;;;4.30;3.90;;;;;;;17.95;100.00;99863.50;5033172;28;20223;-77
2021/06/30 03:45:16;;;;;;;4.17;3.77;;;;;;;17.94;100.00;99864.47;5030556;28;20213;-77
2021/06/30 03:47:42;;;;;;;3.00;2.70;;;;;;;17.89;100.00;99866.56;5025900;28;20212;-76
2021/06/30 03:50:09;;;;;;;2.53;2.17;;;;;;;17.83;100.00;99869.59;5028297;28;20211;-78
2021/06/30 03:52:36;;;;;;;3.07;2.20;;;;;;;17.82;100.00;99867.06;5026172;28;20231;-76
2021/06/30 03:55:03;;;;;;;1.73;1.63;;;;;;;17.77;100.00;99873.50;5030375;28;20207;-77
2021/06/30 03:57:30;;;;;;;1.30;1.13;;;;;;;17.76;100.00;99878.88;5025920;28;20212;-76
2021/06/30 03:59:57;;;;;;;1.93;1.17;;;;;;;17.71;100.00;99870.41;5030338;28;20243;-76
2021/06/30 04:02:24;;;;;;;1.30;1.20;;;;;;;17.67;100.00;99880.34;5026016;28;20219;-77
2021/06/30 04:04:50;;;;;;;1.10;1.00;;;;;;;17.59;100.00;99891.41;5029184;28;20199;-77
2021/06/30 04:07:17;;;;;;;2.10;0.97;;;;;;;17.53;100.00;99889.16;5024624;28;20691;-76
2021/06/30 04:09:43;;;;;;;0.90;0.90;;;;;;;17.45;100.00;99894.13;5024092;28;20214;-75
2021/06/30 04:12:10;;;;;;;1.00;0.90;;;;;;;17.46;100.00;99897.59;5027024;28;20219;-77
2021/06/30 04:14:37;;;;;;;0.90;0.80;;;;;;;17.39;100.00;99891.88;5027286;28;20747;-77
2021/06/30 04:17:04;;;;;;;1.47;0.67;;;;;;;17.35;100.00;99893.88;5030396;28;20674;-77
2021/06/30 04:19:31;;;;;;;0.70;0.70;;;;;;;17.34;100.00;99901.88;5026472;28;20217;-76
2021/06/30 04:21:57;;;;;;;1.47;0.80;;;;;;;17.29;100.00;99898.69;5025770;28;20238;-75
2021/06/30 04:24:24;;;;;;;2.33;0.80;;;;;;;17.25;100.00;99897.22;5026914;28;20205;-77
2021/06/30 04:26:50;;;;;;;0.50;0.50;;;;;;;17.18;100.00;99896.75;5027079;28;20215;-78
2021/06/30 04:29:16;;;;;;;1.57;0.60;;;;;;;17.16;100.00;99899.50;5021417;28;20432;-77
2021/06/30 04:31:44;;;;;;;1.47;0.60;;;;;;;17.12;100.00;99898.00;5026874;28;20233;-77
2021/06/30 04:34:10;;;;;;;0.90;0.60;;;;;;;17.06;100.00;99890.50;5025932;28;20210;-77
2021/06/30 04:36:37;;;;;;;1.27;0.80;;;;;;;17.05;100.00;99885.34;5008491;28;20221;-76
2021/06/30 04:39:03;;;;;;;0.80;0.70;;;;;;;17.04;100.00;99895.03;5030354;28;20207;-77
2021/06/30 04:41:30;;;;;;;1.03;0.67;;;;;;;17.03;100.00;99896.81;5025770;28;20227;-76
2021/06/30 04:43:56;;;;;;;0.70;0.70;;;;;;;17.03;100.00;99896.81;5030465;28;20211;-77
2021/06/30 04:46:23;;;;;;;1.00;0.70;;;;;;;17.02;100.00;99905.66;5030566;28;20223;-77
2021/06/30 04:48:50;;;;;;;0.97;0.80;;;;;;;17.02;100.00;99903.00;5034795;28;20769;-77
2021/06/30 04:51:17;;;;;;;1.20;1.10;;;;;;;16.96;100.00;99905.22;5021942;28;20227;-76
2021/06/30 04:53:46;;;;;;;1.30;1.20;;;;;;;16.93;100.00;99900.97;5025792;28;20214;-77
2021/06/30 04:56:12;;;;;;;1.33;0.93;;;;;;;16.90;100.00;99902.97;5028034;28;20260;-77
2021/06/30 04:58:39;;;;;;;2.03;1.13;;;;;;;16.84;100.00;99910.31;5022817;28;20206;-76
2021/06/30 05:01:05;;;;;;;2.27;1.00;;;;;;;16.84;100.00;99898.94;5029472;28;20228;-78
2021/06/30 05:03:31;;;;;;;1.20;1.10;;;;;;;16.81;100.00;99910.47;5024970;28;20215;-76
2021/06/30 05:05:59;;;;;;;3.27;1.20;;;;;;;16.80;100.00;99900.91;5033981;28;20243;-78
2021/06/30 05:08:26;;;;;;;1.73;1.30;;;;;;;16.79;100.00;99911.53;5024856;28;20239;-78
2021/06/30 05:10:52;;;;;;;1.73;1.40;;;;;;;16.80;100.00;99911.44;5028056;28;20767;-76
2021/06/30 05:13:19;;;;;;;2.27;1.47;;;;;;;16.78;100.00;99902.78;5023259;28;20196;-76
2021/06/30 05:15:45;;;;;;;1.83;1.50;;;;;;;16.81;100.00;99901.72;5026912;28;20217;-77
2021/06/30 05:18:12;;;;;;;2.30;1.70;;;;;;;16.83;100.00;99903.38;5023227;28;20203;-77
2021/06/30 05:20:38;;;;;;;3.73;2.13;;;;;;;16.87;100.00;99895.25;5016416;28;20678;-77
2021/06/30 05:23:06;;;;;;;2.27;1.60;;;;;;;16.82;100.00;99890.28;5027969;28;20200;-78
2021/06/30 05:25:32;;;;;;;2.23;1.70;;;;;;;16.87;100.00;99879.47;5020934;28;20578;-76
2021/06/30 05:27:59;;;;;;;2.70;1.73;;;;;;;16.88;100.00;99879.38;5037439;28;20281;-76
2021/06/30 05:30:25;;;;;;;1.70;1.60;;;;;;;16.90;100.00;99869.56;5022517;28;20208;-78
2021/06/30 05:32:52;;;;;;;2.70;1.50;;;;;;;16.90;100.00;99866.94;5028549;28;20393;-78
2021/06/30 05:35:18;;;;;;;2.97;1.70;;;;;;;16.90;100.00;99855.56;5022187;28;20597;-76
2021/06/30 05:37:44;;;;;;;2.20;1.70;;;;;;;16.91;100.00;99855.47;5026862;28;20203;-75
2021/06/30 05:40:13;;;;;;;2.43;1.80;;;;;;;16.88;100.00;99846.94;5022657;28;20203;-78
2021/06/30 05:42:41;;;;;;;1.63;1.53;;;;;;;16.82;100.00;99854.25;5019609;28;20241;-77
2021/06/30 05:45:08;;;;;;;2.00;1.30;;;;;;;16.78;100.00;99857.16;5001073;28;20214;-77
2021/06/30 05:47:34;;;;;;;2.93;1.70;;;;;;;16.77;100.00;99864.22;5020821;28;20234;-77
2021/06/30 05:50:01;;;;;;;2.63;1.80;;;;;;;16.82;100.00;99877.09;5017936;28;20250;-76
2021/06/30 05:52:27;;;;;;;2.90;1.77;;;;;;;16.86;100.00;99885.69;5021333;28;20223;-77
2021/06/30 05:54:54;;;;;;;2.23;1.93;;;;;;;16.83;100.00;99882.31;5025170;28;20203;-76
2021/06/30 05:57:21;;;;;;;2.33;1.90;;;;;;;16.84;100.00;99885.78;5022690;28;20202;-76
2021/06/30 05:59:48;;;;;;;2.80;2.37;;;;;;;16.86;100.00;99885.69;5025405;28;20207;-77
2021/06/30 06:02:14;;;;;;;2.07;1.83;;;;;;;16.84;100.00;99891.88;5018773;28;20731;-76
2021/06/30 06:04:40;;;;;;;2.40;2.03;;;;;;;16.83;100.00;99890.22;5023635;28;20235;-76
2021/06/30 06:07:07;;;;;;;2.20;1.97;;;;;;;16.91;100.00;99894.13;5021926;28;20559;-76
2021/06/30 06:09:33;;;;;;;2.33;2.13;;;;;;;16.90;100.00;99892.44;5021642;28;20323;-77
2021/06/30 06:12:00;;;;;;;3.13;2.10;;;;;;;16.90;100.00;99895.06;5024513;28;20223;-77
2021/06/30 06:14:27;;;;;;;3.33;1.93;;;;;;;16.93;100.00;99900.16;5021262;28;20623;-76
2021/06/30 06:16:54;;;;;;;2.03;1.83;;;;;;;16.90;100.00;99909.06;5025292;28;20199;-77
2021/06/30 06:19:21;;;;;;;2.67;2.20;;;;;;;16.96;100.00;99903.44;5025641;28;20312;-76
2021/06/30 06:21:47;;;;;;;2.10;1.90;;;;;;;17.00;100.00;99898.81;5022142;28;20304;-76
2021/06/30 06:24:14;;;;;;;2.33;2.10;;;;;;;17.02;100.00;99896.91;5013388;28;20309;-76
2021/06/30 06:26:40;;;;;;;2.40;2.20;;;;;;;17.01;100.00;99896.06;5028565;28;20701;-77
2021/06/30 06:29:07;;;;;;;5.57;2.43;;;;;;;17.00;100.00;99904.91;5019393;28;20203;-77
2021/06/30 06:31:34;;;;;;;2.93;2.10;;;;;;;17.05;100.00;99898.53;5011913;28;20240;-77
2021/06/30 06:34:01;;;;;;;3.13;2.60;;;;;;;17.03;100.00;99891.56;5023594;28;20204;-76
2021/06/30 06:36:27;;;;;;;2.63;2.43;;;;;;;17.06;100.00;99902.81;5028064;28;20741;-77
2021/06/30 06:38:54;;;;;;;2.90;2.63;;;;;;;17.07;100.00;99897.47;5016122;28;20621;-76
2021/06/30 06:41:20;;;;;;;3.27;3.00;;;;;;;17.06;100.00;99894.94;5025465;28;20232;-76
2021/06/30 06:43:47;;;;;;;3.10;2.80;;;;;;;17.05;100.00;99898.53;5030787;28;20689;-77
2021/06/30 06:46:13;;;;;;;3.20;2.90;;;;;;;17.04;100.00;99889.75;5026297;28;20203;-77
2021/06/30 06:48:42;;;;;;;2.80;2.60;;;;;;;17.07;100.00;99900.09;5031224;28;20290;-78
2021/06/30 06:51:08;;;;;;;2.50;2.30;;;;;;;16.99;100.00;99891.84;5027948;28;20297;-78
2021/06/30 06:53:35;;;;;;;2.27;2.03;;;;;;;17.03;100.00;99899.44;5028297;28;20745;-76
2021/06/30 06:56:02;;;;;;;3.30;2.30;;;;;;;17.03;100.00;99898.63;5029277;28;20204;-78
2021/06/30 06:58:29;;;;;;;2.17;1.83;;;;;;;17.03;100.00;99909.97;5028267;28;20209;-78
2021/06/30 07:00:55;;;;;;;2.27;2.07;;;;;;;17.00;100.00;99911.97;5020504;28;20207;-77
2021/06/30 07:03:21;;;;;;;2.10;2.00;;;;;;;16.99;100.00;99919.03;5027179;28;20213;-79
2021/06/30 07:05:49;;;;;;;2.20;2.00;;;;;;;17.04;100.00;99931.88;5026993;28;20218;-78
2021/06/30 07:08:16;;;;;;;2.20;2.00;;;;;;;17.02;100.00;99928.50;5027451;28;20220;-78
2021/06/30 07:10:42;;;;;;;2.97;2.07;;;;;;;17.02;100.00;99924.09;5029409;28;20800;-76
2021/06/30 07:13:08;;;;;;;2.00;1.80;;;;;;;17.01;100.00;99927.69;5027886;28;20196;-77
2021/06/30 07:15:37;;;;;;;3.03;2.03;;;;;;;16.99;100.00;99921.66;5031909;28;20216;-78
2021/06/30 07:18:04;;;;;;;2.23;2.00;;;;;;;17.00;100.00;99925.13;5022991;28;20388;-78
2021/06/30 07:20:30;;;;;;;2.07;1.93;;;;;;;17.01;100.00;99932.94;5027065;28;20207;-78
2021/06/30 07:22:58;;;;;;;2.00;1.90;;;;;;;16.99;100.00;99929.56;5026718;28;20224;-77
2021/06/30 07:25:24;;;;;;;1.90;1.80;;;;;;;17.04;100.00;99931.88;5021346;28;20591;-78
2021/06/30 07:27:51;;;;;;;2.50;2.10;;;;;;;17.07;100.00;99929.06;5030874;28;20347;-76
2021/06/30 07:30:18;;;;;;;2.10;2.00;;;;;;;17.06;100.00;99934.44;5023998;28;20634;-77
2021/06/30 07:32:44;;;;;;;2.17;2.03;;;;;;;17.01;100.00;99922.41;5025372;28;20761;-76
2021/06/30 07:35:11;;;;;;;2.50;2.30;;;;;;;17.00;100.00;99920.72;5024113;28;20609;-77
2021/06/30 07:37:38;;;;;;;2.00;1.90;;;;;;;17.04;100.00;99924.00;5030783;28;20221;-77
2021/06/30 07:40:07;;;;;;;1.90;1.80;;;;;;;17.01;100.00;99922.41;5029392;28;20809;-78
2021/06/30 07:42:35;;;;;;;2.20;2.00;;;;;;;17.07;100.00;99922.97;5023690;28;20224;-78
2021/06/30 07:45:01;;;;;;;2.50;2.30;;;;;;;17.12;100.00;99924.34;5028098;28;20203;-78
2021/06/30 07:47:29;;;;;;;2.60;2.10;;;;;;;17.10;100.00;99923.59;5026796;28;20223;-78
2021/06/30 07:49:56;;;;;;;2.30;2.10;;;;;;;17.12;100.00;99918.25;5026944;28;20689;-77
2021/06/30 07:52:22;;;;;;;3.37;2.60;;;;;;;17.13;100.00;99912.88;5022665;28;20244;-77
2021/06/30 07:54:49;;;;;;;2.73;2.53;;;;;;;17.16;100.00;99915.28;5028321;28;20644;-76
2021/06/30 07:57:16;;;;;;;2.67;2.47;;;;;;;17.11;100.00;99917.38;5024692;28;20274;-77
2021/06/30 07:59:43;;;;;;;2.20;2.10;;;;;;;17.09;100.00;99924.53;5031722;28;20303;-76
2021/06/30 08:02:09;;;;;;;3.80;2.70;;;;;;;17.22;100.00;99924.63;5031990;28;20223;-77
2021/06/30 08:04:36;;;;;;;2.70;2.50;;;;;;;17.18;100.00;99929.25;5030503;28;20217;-77
2021/06/30 08:07:02;;;;;;;2.90;2.70;;;;;;;17.21;100.00;99926.38;5008073;28;20220;-77
2021/06/30 08:09:31;;;;;;;3.30;3.00;;;;;;;17.27;100.00;99934.84;5026433;28;20204;-77
2021/06/30 08:11:58;;;;;;;2.97;2.27;;;;;;;17.25;100.00;99931.47;5034250;28;20730;-78
2021/06/30 08:14:26;;;;;;;2.73;2.53;;;;;;;17.27;100.00;99929.56;5021491;28;20297;-76
2021/06/30 08:16:52;;;;;;;2.60;2.40;;;;;;;17.28;100.00;99928.63;5025345;28;20207;-76
2021/06/30 08:19:19;;;;;;;2.93;2.27;;;;;;;17.32;100.00;99930.13;5024610;28;20630;-76
2021/06/30 08:21:45;;;;;;;2.67;2.43;;;;;;;17.30;100.00;99935.47;5026318;28;20227;-77
2021/06/30 08:24:12;;;;;;;3.07;2.50;;;;;;;17.26;100.00;99930.53;5024811;28;20200;-77
2021/06/30 08:26:39;;;;;;;2.53;2.33;;;;;;;17.35;100.00;99937.81;5026738;28;20216;-79
2021/06/30 08:29:05;;;;;;;3.80;2.33;;;;;;;17.37;100.00;99938.56;5019333;28;20196;-78
2021/06/30 08:31:33;;;;;;;2.37;2.17;;;;;;;17.38;100.00;99937.63;5023941;28;20230;-77
2021/06/30 08:33:59;;;;;;;2.57;2.37;;;;;;;17.31;100.00;99944.25;5023166;28;20219;-77
2021/06/30 08:36:26;;;;;;;2.30;2.10;;;;;;;17.32;100.00;99953.81;5024230;28;20210;-79
2021/06/30 08:38:52;;;;;;;3.27;2.30;;;;;;;17.31;100.00;99954.78;5023060;28;20553;-78
2021/06/30 08:41:20;;;;;;;3.53;2.70;;;;;;;17.29;100.00;99951.38;5021592;28;20727;-78
2021/06/30 08:43:46;;;;;;;3.20;2.90;;;;;;;17.22;100.00;99954.44;5033652;28;20237;-78
2021/06/30 08:46:18;;;;;;;3.20;2.90;;;;;;;17.26;100.00;99962.13;5023288;28;20211;-78
2021/06/30 08:48:47;;;;;;;3.30;3.00;;;;;;;17.31;100.00;99963.53;5024988;28;20307;-78
2021/06/30 08:51:14;;;;;;;3.90;3.50;;;;;;;17.33;100.00;99969.53;5012605;28;20596;-77
2021/06/30 08:53:41;;;;;;;5.20;3.47;;;;;;;17.38;100.00;99962.19;5028705;28;20255;-78
2021/06/30 08:56:08;;;;;;;4.20;3.80;;;;;;;17.39;100.00;99970.91;5027605;28;20677;-78
2021/06/30 08:58:35;;;;;;;6.33;4.37;;;;;;;17.38;100.00;99964.81;5024409;28;20328;-78
2021/06/30 09:01:02;;;;;;;5.40;4.20;;;;;;;17.40;100.00;99970.81;5029868;28;20521;-77
2021/06/30 09:03:29;;;;;;;4.80;4.40;;;;;;;17.39;100.00;99969.13;5020817;28;20567;-77
2021/06/30 09:06:11;;;;;;;5.57;4.83;;;;;;;17.48;100.00;99970.31;5030369;28;20682;-79
2021/06/30 09:08:59;;;;;;;5.57;5.07;;;;;;;17.48;100.00;99982.66;5027517;28;20233;-78
2021/06/30 09:11:27;;;;;;;6.10;5.50;;;;;;;17.46;100.00;99974.00;5023133;28;20253;-77
2021/06/30 09:14:11;;;;;;;5.67;5.10;;;;;;;17.48;100.00;99970.31;5022037;28;20211;-75
2021/06/30 09:16:57;;;;;;;6.20;5.60;;;;;;;17.50;100.00;99971.09;5019567;28;20744;-77
2021/06/30 09:19:46;;;;;;;6.70;5.90;;;;;;;17.45;100.00;99975.81;5026838;28;20227;-79
2021/06/30 09:22:14;;;;;;;6.90;5.70;;;;;;;17.54;100.00;99974.38;5026038;28;20224;-77
2021/06/30 09:24:40;;;;;;;5.73;5.23;;;;;;;17.56;100.00;99970.66;5024859;28;20317;-76
2021/06/30 09:27:09;;;;;;;6.60;6.00;;;;;;;17.64;100.00;99971.94;5009232;28;20216;-78
2021/06/30 09:29:37;;;;;;;5.87;5.37;;;;;;;17.55;100.00;99974.25;5021178;28;20381;-78
2021/06/30 09:32:09;;;;;;;5.83;5.33;;;;;;;17.62;100.00;99968.56;5025237;28;20237;-77
2021/06/30 09:34:35;;;;;;;5.40;4.90;;;;;;;17.58;100.00;99974.03;5024664;28;20204;-77
2021/06/30 09:37:04;;;;;;;5.50;4.90;;;;;;;17.53;100.00;99973.50;5025834;28;20231;-77
2021/06/30 09:39:37;;;;;;;5.40;4.90;;;;;;;17.66;100.00;99970.06;5024627;28;20222;-76
2021/06/30 09:42:05;;;;;;;5.73;5.23;;;;;;;17.71;100.00;99986.41;5025361;28;20228;-78
2021/06/30 09:44:32;;;;;;;5.90;5.00;;;;;;;17.73;100.00;99966.06;5027930;28;20203;-78
2021/06/30 09:46:59;;;;;;;5.40;4.90;;;;;;;17.70;100.00;99971.56;5024110;28;20208;-79
2021/06/30 09:49:26;;;;;;;5.23;4.73;;;;;;;17.73;100.00;99973.97;5026055;28;20210;-77
2021/06/30 09:52:05;;;;;;;4.93;4.43;;;;;;;17.83;100.00;99975.06;5021003;28;20286;-76
2021/06/30 09:54:34;;;;;;;5.03;4.63;;;;;;;17.76;100.00;99976.41;5027651;28;20740;-77
2021/06/30 09:57:04;;;;;;;5.00;4.40;;;;;;;17.79;100.00;99971.78;5023253;28;20271;-77
2021/06/30 09:59:35;;;;;;;5.10;4.60;;;;;;;17.70;100.00;99982.09;5026492;28;20222;-78
2021/06/30 10:02:04;;;;;;;5.07;4.57;;;;;;;17.73;100.00;99976.59;5028962;28;20222;-78
2021/06/30 10:04:33;;;;;;;5.63;5.13;;;;;;;17.83;100.00;99979.50;5026367;28;20668;-76
2021/06/30 10:07:02;;;;;;;5.87;5.07;;;;;;;17.96;100.00;99983.88;5024783;28;20797;-77
2021/06/30 10:09:29;;;;;;;5.60;5.10;;;;;;;18.01;100.00;99985.34;5019507;28;20214;-78
2021/06/30 10:11:59;;;;;;;6.27;5.67;;;;;;;17.98;100.00;99976.69;5024886;28;20632;-77
2021/06/30 10:14:26;;;;;;;6.37;5.77;;;;;;;18.02;100.00;99987.88;5025225;28;20395;-76
2021/06/30 10:16:53;;;;;;;7.60;5.60;;;;;;;17.95;100.00;99990.09;5027803;28;20218;-75
2021/06/30 10:19:19;;;;;;;7.40;6.17;;;;;;;18.00;100.00;99983.69;5024989;28;20196;-77
2021/06/30 10:21:47;;;;;;;6.77;5.80;;;;;;;18.12;100.00;99977.56;5024648;28;20227;-77
2021/06/30 10:24:14;;;;;;;7.10;6.40;;;;;;;18.21;100.00;99979.56;5026707;28;20237;-76
2021/06/30 10:26:41;;;;;;;6.67;5.97;;;;;;;18.26;100.00;99982.75;5024336;28;20277;-76
2021/06/30 10:29:09;;;;;;;7.30;6.50;;;;;;;18.28;100.00;99983.47;5026934;28;20227;-77
2021/06/30 10:31:36;;;;;;;6.93;6.33;;;;;;;18.35;100.00;99984.75;5020236;28;20224;-78
2021/06/30 10:34:05;;;;;;;8.33;5.87;;;;;;;18.33;100.00;99986.66;5029427;28;20210;-76
2021/06/30 10:36:50;;;;;;;6.23;5.53;;;;;;;18.40;100.00;99987.09;5021197;28;20204;-77
2021/06/30 10:39:17;;;;;;;5.47;4.97;;;;;;;18.33;100.00;99989.28;5025184;28;20202;-77
2021/06/30 10:41:50;;;;;;;6.33;4.53;;;;;;;18.31;100.00;99995.59;5024860;28;20228;-78
2021/06/30 10:44:19;;;;;;;4.73;4.33;;;;;;;18.30;100.00;99991.31;5025265;28;20236;-76
2021/06/30 10:46:46;;;;;;;4.20;3.90;;;;;;;18.25;100.00;99988.13;5027120;28;20696;-76
2021/06/30 10:49:16;;;;;;;5.20;4.03;;;;;;;18.25;100.00;99983.69;5018798;28;20328;-78
2021/06/30 10:51:43;;;;;;;3.97;3.53;;;;;;;18.37;100.00;99986.44;5031474;28;20231;-75
2021/06/30 10:54:42;;;;;;;4.03;3.63;;;;;;;18.42;100.00;99977.25;5018543;28;20204;-76
2021/06/30 10:57:29;;;;;;;3.70;3.40;;;;;;;18.50;100.00;99984.63;5011398;28;20466;-78
2021/06/30 11:00:20;;;;;;;3.80;2.97;;;;;;;18.44;100.00;99988.56;5028346;28;20814;-77
2021/06/30 11:03:21;;;;;;;3.00;2.80;;;;;;;18.45;100.00;99981.47;5023599;28;20235;-77
2021/06/30 11:05:48;;;;;;;2.47;2.27;;;;;;;18.64;100.00;99994.25;5026169;28;20203;-75
2021/06/30 11:08:37;;;;;;;2.60;2.40;;;;;;;18.76;100.00;100000.47;5017388;28;20522;-77
2021/06/30 11:11:04;;;;;;;1.93;1.83;;;;;;;18.87;100.00;99997.94;5017797;28;20307;-76
2021/06/30 11:13:52;;;;;;;3.43;2.07;;;;;;;18.98;100.00;100007.72;5022372;28;20207;-75
2021/06/30 11:16:47;;;;;;;1.73;1.63;;;;;;;19.15;100.00;100007.38;5017341;28;20212;-75
2021/06/30 11:19:41;;;;;;;1.67;1.57;;;;;;;19.25;100.00;100004.94;5031045;28;20216;-76
2021/06/30 11:22:21;;;;;;;1.70;1.60;;;;;;;19.26;100.00;100012.75;5029025;28;20223;-78
2021/06/30 11:24:49;;;;;;;2.17;1.37;;;;;;;19.33;100.00;100014.94;5022296;28;20232;-77
2021/06/30 11:27:42;;;;;;;1.47;1.37;;;;;;;19.05;100.00;100016.91;5034496;28;20227;-78